createdAt,value
2023-05-14T00:07:26.261Z,6.88
2023-05-14T00:12:29.455Z,7.95
2023-05-14T00:17:31.861Z,7.63
2023-05-14T00:22:36.016Z,7.70
2023-05-14T00:27:38.476Z,8.83
2023-05-14T00:32:40.972Z,6.57
2023-05-14T00:37:44.867Z,7.32
2023-05-14T00:42:47.260Z,7.63
2023-05-14T00:47:50.231Z,7.33
2023-05-14T00:52:54.428Z,7.97
2023-05-14T00:57:59.690Z,10.13
2023-05-14T01:03:03.778Z,9.43
2023-05-14T01:08:22.641Z,9.60
2023-05-14T01:13:33.747Z,9.13
2023-05-14T01:18:37.005Z,9.07
2023-05-14T01:23:40.894Z,8.73
2023-05-14T01:28:54.015Z,9.07
2023-05-14T01:33:59.181Z,9.43
2023-05-14T01:39:04.169Z,9.95
2023-05-14T01:44:08.988Z,10.93
2023-05-14T01:49:11.486Z,11.13
2023-05-14T01:54:15.716Z,17.33
2023-05-14T01:59:18.167Z,14.47
2023-05-14T02:04:20.583Z,11.37
2023-05-14T02:09:24.714Z,11.18
2023-05-14T02:14:27.272Z,11.03
2023-05-14T02:19:30.027Z,8.83
2023-05-14T02:24:33.904Z,9.77
2023-05-14T02:29:36.634Z,10.07
2023-05-14T02:34:41.759Z,9.73
2023-05-14T02:39:45.641Z,11.10
2023-05-14T02:44:48.368Z,10.10
2023-05-14T02:49:50.977Z,10.30
2023-05-14T02:54:54.774Z,10.88
2023-05-14T02:59:57.271Z,10.97
2023-05-14T03:05:00.269Z,10.15
2023-05-14T03:10:08.685Z,9.95
2023-05-14T03:15:11.835Z,9.27
2023-05-14T03:20:17.044Z,11.10
2023-05-14T03:25:20.985Z,13.27
2023-05-14T03:30:23.692Z,11.83
2023-05-14T03:35:26.581Z,12.05
2023-05-14T03:40:30.835Z,13.73
2023-05-14T03:45:33.924Z,12.85
2023-05-14T03:50:36.928Z,12.90
2023-05-14T03:55:41.015Z,11.87
2023-05-14T04:00:46.953Z,13.35
2023-05-14T04:05:49.514Z,13.53
2023-05-14T04:10:53.450Z,14.83
2023-05-14T04:15:58.685Z,16.05
2023-05-14T04:21:01.607Z,14.00
2023-05-14T04:26:05.696Z,14.00
2023-05-14T04:31:12.568Z,16.20
2023-05-14T04:36:15.477Z,20.07
2023-05-14T04:41:22.340Z,16.27
2023-05-14T04:46:28.038Z,13.25
2023-05-14T04:51:30.667Z,14.07
2023-05-14T04:56:34.664Z,11.98
2023-05-14T05:01:37.348Z,9.57
2023-05-14T05:06:40.008Z,9.70
2023-05-14T05:11:44.138Z,7.38
2023-05-14T05:16:46.724Z,9.77
2023-05-14T05:21:49.594Z,7.40
2023-05-14T05:26:53.667Z,8.02
2023-05-14T05:31:56.280Z,8.48
2023-05-14T05:36:58.857Z,7.60
2023-05-14T05:42:03.054Z,8.27
2023-05-14T05:47:08.738Z,8.35
2023-05-14T05:52:11.404Z,10.07
2023-05-14T05:57:15.320Z,9.57
2023-05-14T06:02:17.882Z,7.22
2023-05-14T06:07:22.970Z,8.97
2023-05-14T06:12:27.038Z,9.93
2023-05-14T06:17:32.474Z,7.63
2023-05-14T06:22:37.831Z,9.47
2023-05-14T06:27:44.575Z,10.40
2023-05-14T06:32:47.166Z,9.35
2023-05-14T06:37:49.688Z,6.93
2023-05-14T06:42:56.932Z,7.77
2023-05-14T06:48:00.122Z,6.55
2023-05-14T06:53:02.782Z,7.28
2023-05-14T06:58:08.362Z,5.30
2023-05-14T07:03:10.875Z,5.35
2023-05-14T07:08:13.565Z,5.95
2023-05-14T07:13:17.400Z,5.33
2023-05-14T07:18:19.769Z,5.97
2023-05-14T07:23:22.301Z,4.80
2023-05-14T07:28:26.126Z,4.90
2023-05-14T07:33:28.550Z,6.03
2023-05-14T07:38:32.192Z,4.35
2023-05-14T07:43:35.980Z,3.63
2023-05-14T07:48:38.382Z,3.20
2023-05-14T07:53:40.975Z,3.83
2023-05-14T07:58:47.825Z,3.50
2023-05-14T08:03:50.456Z,4.00
2023-05-14T08:08:52.908Z,4.03
2023-05-14T08:13:56.690Z,3.53
2023-05-14T08:18:59.248Z,3.23
2023-05-14T08:24:01.701Z,3.97
2023-05-14T08:29:05.637Z,4.25
2023-05-14T08:34:08.143Z,3.90
2023-05-14T08:39:10.546Z,3.50
2023-05-14T08:44:19.289Z,3.70
2023-05-14T08:49:38.939Z,3.50
2023-05-14T08:54:41.496Z,3.40
2023-05-14T08:59:48.357Z,3.00
2023-05-14T09:04:55.184Z,2.70
2023-05-14T09:09:57.827Z,3.93
2023-05-14T09:15:05.727Z,3.07
2023-05-14T09:20:12.388Z,2.70
2023-05-14T09:25:14.857Z,3.40
2023-05-14T09:30:18.928Z,2.50
2023-05-14T09:35:24.981Z,2.42
2023-05-14T09:40:27.785Z,2.30
2023-05-14T09:45:41.578Z,2.70
2023-05-14T09:50:53.645Z,2.10
2023-05-14T09:55:56.136Z,2.28
2023-05-14T10:01:01.829Z,2.60
2023-05-14T10:06:06.880Z,2.43
2023-05-14T10:11:18.757Z,2.17
2023-05-14T10:16:33.217Z,2.10
2023-05-14T10:21:38.919Z,1.97
2023-05-14T10:26:42.549Z,1.80
2023-05-14T10:31:51.776Z,2.15
2023-05-14T10:36:54.269Z,2.07
2023-05-14T10:41:57.359Z,1.88
2023-05-14T10:47:01.788Z,2.20
2023-05-14T10:52:07.384Z,1.90
2023-05-14T10:57:12.259Z,2.30
2023-05-14T11:02:26.325Z,2.15
2023-05-14T11:07:31.493Z,2.17
2023-05-14T11:12:35.837Z,1.73
2023-05-14T11:17:42.669Z,2.42
2023-05-14T11:22:47.117Z,2.38
2023-05-14T11:27:51.437Z,2.17
2023-05-14T11:32:56.614Z,1.90
2023-05-14T11:37:59.185Z,2.17
2023-05-14T11:43:01.885Z,2.40
2023-05-14T11:48:13.771Z,2.27
2023-05-14T11:53:20.126Z,2.38
2023-05-14T11:58:22.863Z,2.10
2023-05-14T12:03:27.180Z,2.37
2023-05-14T12:08:31.947Z,2.30
2023-05-14T12:13:36.316Z,2.10
2023-05-14T12:18:40.437Z,2.40
2023-05-14T12:23:42.959Z,1.90
2023-05-14T12:28:48.275Z,1.98
2023-05-14T12:33:52.212Z,2.33
2023-05-14T12:39:03.000Z,2.47
2023-05-14T12:44:05.895Z,2.35
2023-05-14T12:49:10.146Z,2.08
2023-05-14T12:54:12.651Z,2.30
2023-05-14T12:59:15.293Z,1.73
2023-05-14T13:04:19.351Z,1.98
2023-05-14T13:09:22.152Z,1.90
2023-05-14T13:14:27.412Z,2.33
2023-05-14T13:19:31.421Z,2.28
2023-05-14T13:24:35.866Z,1.93
2023-05-14T13:29:38.364Z,1.90
2023-05-14T13:34:42.265Z,2.00
2023-05-14T13:39:44.821Z,2.33
2023-05-14T13:44:47.304Z,2.30
2023-05-14T13:49:52.162Z,2.30
2023-05-14T13:54:54.553Z,2.30
2023-05-14T13:59:59.704Z,3.17
2023-05-14T14:05:03.716Z,2.05
2023-05-14T14:10:10.355Z,2.20
2023-05-14T14:15:12.792Z,2.00
2023-05-14T14:20:16.772Z,2.30
2023-05-14T14:25:19.223Z,2.70
2023-05-14T14:30:21.629Z,1.70
2023-05-14T14:35:25.894Z,1.73
2023-05-14T14:40:28.489Z,2.13
2023-05-14T14:45:33.835Z,2.15
2023-05-14T14:50:38.021Z,2.00
2023-05-14T14:55:40.478Z,2.00
2023-05-14T15:00:46.206Z,1.95
2023-05-14T15:05:50.605Z,1.97
2023-05-14T15:10:53.301Z,1.90
2023-05-14T15:15:55.816Z,2.28
2023-05-14T15:20:59.711Z,1.92
2023-05-14T15:26:05.355Z,2.10
2023-05-14T15:31:08.026Z,1.73
2023-05-14T15:36:12.567Z,1.70
2023-05-14T15:41:15.880Z,2.70
2023-05-14T15:46:18.567Z,2.22
2023-05-14T15:51:22.449Z,2.00
2023-05-14T15:56:25.027Z,2.70
2023-05-14T16:01:27.537Z,2.50
2023-05-14T16:06:31.471Z,2.22
2023-05-14T16:11:33.985Z,2.00
2023-05-14T16:16:37.378Z,2.20
2023-05-14T16:21:41.306Z,2.05
2023-05-14T16:26:46.745Z,2.45
2023-05-14T16:31:49.263Z,2.20
2023-05-14T16:36:53.758Z,2.30
2023-05-14T16:41:56.242Z,2.22
2023-05-14T16:46:58.671Z,2.20
2023-05-14T16:52:02.446Z,2.03
2023-05-14T16:57:05.893Z,3.10
2023-05-14T17:02:08.462Z,3.08
2023-05-14T17:07:15.105Z,2.83
2023-05-14T17:12:17.460Z,3.70
2023-05-14T17:17:19.928Z,7.03
2023-05-14T17:22:26.534Z,6.47
2023-05-14T17:27:29.129Z,5.40
2023-05-14T17:32:31.806Z,7.60
2023-05-14T17:37:36.138Z,10.57
2023-05-14T17:42:38.579Z,10.60
2023-05-14T17:47:41.243Z,10.15
2023-05-14T17:52:48.244Z,6.15
2023-05-14T17:57:53.606Z,5.07
2023-05-14T18:02:56.116Z,7.82
2023-05-14T18:08:02.777Z,7.50
2023-05-14T18:13:05.181Z,5.67
2023-05-14T18:18:08.148Z,5.68
2023-05-14T18:23:14.886Z,5.57
2023-05-14T18:28:17.408Z,4.73
2023-05-14T18:33:19.845Z,4.10
2023-05-14T18:38:26.144Z,3.97
2023-05-14T18:43:28.521Z,4.45
2023-05-14T18:48:31.581Z,5.60
2023-05-14T18:53:35.341Z,6.55
2023-05-14T18:58:37.744Z,5.95
2023-05-14T19:03:40.406Z,5.50
2023-05-14T19:08:44.632Z,4.13
2023-05-14T19:13:47.105Z,6.38
2023-05-14T19:18:49.768Z,7.33
2023-05-14T19:23:54.180Z,9.20
2023-05-14T19:28:57.343Z,9.85
2023-05-14T19:33:59.777Z,10.10
2023-05-14T19:39:04.094Z,9.27
2023-05-14T19:44:06.541Z,9.45
2023-05-14T19:49:09.244Z,7.75
2023-05-14T19:54:13.117Z,8.33
2023-05-14T19:59:15.787Z,9.27
2023-05-14T20:04:18.153Z,12.23
2023-05-14T20:09:22.036Z,14.60
2023-05-14T20:14:24.419Z,16.03
2023-05-14T20:19:26.781Z,15.23
2023-05-14T20:24:31.016Z,13.35
2023-05-14T20:29:33.497Z,12.83
2023-05-14T20:34:36.070Z,17.95
2023-05-14T20:39:42.430Z,20.88
2023-05-14T20:44:44.822Z,23.43
2023-05-14T20:49:47.704Z,20.80
2023-05-14T20:54:51.766Z,21.20
2023-05-14T20:59:54.310Z,20.10
2023-05-14T21:04:56.751Z,18.07
2023-05-14T21:10:00.614Z,22.67
2023-05-14T21:15:06.040Z,24.45
2023-05-14T21:20:09.890Z,21.63
2023-05-14T21:25:13.730Z,19.48
2023-05-14T21:30:16.527Z,12.30
2023-05-14T21:35:18.944Z,10.50
2023-05-14T21:40:23.245Z,11.23
2023-05-14T21:45:28.972Z,11.82
2023-05-14T21:50:31.610Z,11.87
2023-05-14T21:55:35.857Z,9.80
2023-05-14T22:00:38.549Z,9.18
2023-05-14T22:05:41.052Z,9.93
2023-05-14T22:10:46.539Z,8.40
2023-05-14T22:15:51.299Z,9.35
2023-05-14T22:20:57.314Z,8.02
2023-05-14T22:26:01.157Z,7.07
2023-05-14T22:31:03.666Z,7.47
2023-05-14T22:36:07.236Z,7.18
2023-05-14T22:41:11.075Z,6.33
2023-05-14T22:46:13.582Z,6.18
2023-05-14T22:51:16.055Z,6.07
2023-05-14T22:56:19.959Z,6.30
2023-05-14T23:01:22.338Z,6.80
2023-05-14T23:06:25.595Z,6.15
2023-05-14T23:11:29.380Z,6.20
2023-05-14T23:16:35.044Z,6.80
2023-05-14T23:21:37.448Z,5.90
2023-05-14T23:26:41.782Z,5.93
2023-05-14T23:31:44.388Z,6.07
2023-05-14T23:36:50.042Z,6.15
2023-05-14T23:41:53.855Z,6.00
2023-05-14T23:46:56.346Z,5.77
2023-05-14T23:52:01.502Z,5.75
2023-05-14T23:57:06.092Z,5.85
